Main page
METAR-TAF:

METAR-TAF

Airports :

Ostafyevo International Airport

Moscow, Russia

latitude: 55-30-42N, longitude: 037-30-26E, elevation: 173 m

Current weather observation

The report was made 21 minutes ago, at 01:00 UTC
Wind 8 kt from the North/Northeast
Temperature 15°C
Humidity 94%
Pressure 1013 hPa
Visibility 10 km or more
no clouds below 1500 m and no cumulonimbus

METAR: UUMO 130100Z 03004MPS CAVOK 15/14 Q1013 R26/090060 NOSIG RMK QFE744/0992

Time: 04:21 (01:21 UTC)

Forecast

The report was made 2 hours and 21 minutes ago, at 23:00 UTC
Forecast valid from 13 at 00 UTC to 13 at 09 UTC
Wind 6 kt from the North
Visibility 10 km or more
Scattered clouds at a height of 3000 ft
Probability 40% :
Temporary
from 13 at 00 UTC to 13 at 03 UTC
Visibility: 0300 m
Scattered clouds at a height of 300 ft
fog

TAF: UUMO 122300Z 1300/1309 01003MPS 9999 SCT030 PROB40 TEMPO 1300/1303 0300 FG SCT003

Weather observations and forecasts of more than 4000 airports (METAR and TAF reports).

The available stations are represented by yellow and red dots on the map.

Hover mouse over dot to see the name of the station.

Then click to see weather observations and forecasts.

To change the map : click on the green buttons with a black cross to zoom in, on the green button with a dash to zoom out, or on the green arrows for adjacent maps.


METAR-TAF: